sensor_id;sensor_type;location;lat;lon;timestamp;P1;durP1;ratioP1;P2;durP2;ratioP2
22646;SDS011;11490;42.726;23.268;2023-05-24T00:01:39;12.50;;;6.15;;
22646;SDS011;11490;42.726;23.268;2023-05-24T00:04:06;11.20;;;6.07;;
22646;SDS011;11490;42.726;23.268;2023-05-24T00:06:32;12.70;;;6.32;;
22646;SDS011;11490;42.726;23.268;2023-05-24T00:09:02;19.40;;;6.53;;
22646;SDS011;11490;42.726;23.268;2023-05-24T00:11:28;11.05;;;7.40;;
22646;SDS011;11490;42.726;23.268;2023-05-24T00:13:53;12.35;;;5.57;;
22646;SDS011;11490;42.726;23.268;2023-05-24T00:16:19;9.80;;;6.60;;
22646;SDS011;11490;42.726;23.268;2023-05-24T00:18:44;7.15;;;5.05;;
22646;SDS011;11490;42.726;23.268;2023-05-24T00:21:11;18.10;;;5.07;;
22646;SDS011;11490;42.726;23.268;2023-05-24T00:23:37;10.27;;;5.90;;
22646;SDS011;11490;42.726;23.268;2023-05-24T00:26:03;9.40;;;5.50;;
22646;SDS011;11490;42.726;23.268;2023-05-24T00:28:30;9.85;;;4.60;;
22646;SDS011;11490;42.726;23.268;2023-05-24T00:30:56;8.57;;;5.63;;
22646;SDS011;11490;42.726;23.268;2023-05-24T00:33:22;8.25;;;4.97;;
22646;SDS011;11490;42.726;23.268;2023-05-24T00:35:48;7.90;;;5.13;;
22646;SDS011;11490;42.726;23.268;2023-05-24T00:38:18;6.78;;;4.95;;
22646;SDS011;11490;42.726;23.268;2023-05-24T00:40:44;7.40;;;4.53;;
22646;SDS011;11490;42.726;23.268;2023-05-24T00:43:09;8.32;;;5.40;;
22646;SDS011;11490;42.726;23.268;2023-05-24T00:45:34;7.18;;;4.45;;
22646;SDS011;11490;42.726;23.268;2023-05-24T00:48:00;6.35;;;4.75;;
22646;SDS011;11490;42.726;23.268;2023-05-24T00:50:25;8.40;;;5.20;;
22646;SDS011;11490;42.726;23.268;2023-05-24T00:52:51;8.20;;;4.72;;
22646;SDS011;11490;42.726;23.268;2023-05-24T00:55:16;6.30;;;4.70;;
22646;SDS011;11490;42.726;23.268;2023-05-24T00:57:42;5.63;;;4.40;;
22646;SDS011;11490;42.726;23.268;2023-05-24T01:00:08;6.43;;;4.78;;
22646;SDS011;11490;42.726;23.268;2023-05-24T01:02:35;5.70;;;4.50;;
22646;SDS011;11490;42.726;23.268;2023-05-24T01:05:01;6.93;;;4.60;;
22646;SDS011;11490;42.726;23.268;2023-05-24T01:15:59;8.05;;;4.82;;
22646;SDS011;11490;42.726;23.268;2023-05-24T01:18:40;11.10;;;4.47;;
22646;SDS011;11490;42.726;23.268;2023-05-24T01:23:43;7.53;;;4.53;;
22646;SDS011;11490;42.726;23.268;2023-05-24T01:26:55;14.32;;;4.88;;
22646;SDS011;11490;42.726;23.268;2023-05-24T01:29:08;6.03;;;4.68;;
22646;SDS011;11490;42.726;23.268;2023-05-24T01:31:34;8.27;;;4.82;;
22646;SDS011;11490;42.726;23.268;2023-05-24T01:34:00;5.80;;;4.32;;
22646;SDS011;11490;42.726;23.268;2023-05-24T01:36:26;8.65;;;4.65;;
22646;SDS011;11490;42.726;23.268;2023-05-24T01:38:51;10.52;;;5.30;;
22646;SDS011;11490;42.726;23.268;2023-05-24T01:41:40;6.50;;;4.70;;
22646;SDS011;11490;42.726;23.268;2023-05-24T01:44:18;7.03;;;4.80;;
22646;SDS011;11490;42.726;23.268;2023-05-24T01:46:49;9.82;;;5.07;;
22646;SDS011;11490;42.726;23.268;2023-05-24T01:49:25;6.35;;;4.32;;
22646;SDS011;11490;42.726;23.268;2023-05-24T01:52:15;6.15;;;4.15;;
22646;SDS011;11490;42.726;23.268;2023-05-24T01:54:44;10.23;;;6.15;;
22646;SDS011;11490;42.726;23.268;2023-05-24T01:57:14;7.30;;;5.05;;
22646;SDS011;11490;42.726;23.268;2023-05-24T01:59:42;7.78;;;5.00;;
22646;SDS011;11490;42.726;23.268;2023-05-24T02:02:09;7.22;;;4.85;;
22646;SDS011;11490;42.726;23.268;2023-05-24T02:04:36;8.25;;;4.65;;
22646;SDS011;11490;42.726;23.268;2023-05-24T02:07:01;7.10;;;5.55;;
22646;SDS011;11490;42.726;23.268;2023-05-24T02:09:27;7.43;;;5.38;;
22646;SDS011;11490;42.726;23.268;2023-05-24T02:11:52;7.85;;;5.57;;
22646;SDS011;11490;42.726;23.268;2023-05-24T02:14:18;11.18;;;5.10;;
22646;SDS011;11490;42.726;23.268;2023-05-24T02:16:43;8.18;;;5.38;;
22646;SDS011;11490;42.726;23.268;2023-05-24T02:19:10;6.97;;;5.10;;
22646;SDS011;11490;42.726;23.268;2023-05-24T02:21:36;9.10;;;5.32;;
22646;SDS011;11490;42.726;23.268;2023-05-24T02:24:02;10.10;;;5.82;;
22646;SDS011;11490;42.726;23.268;2023-05-24T02:26:28;8.00;;;4.97;;
22646;SDS011;11490;42.726;23.268;2023-05-24T02:28:53;8.40;;;5.40;;
22646;SDS011;11490;42.726;23.268;2023-05-24T02:31:18;9.18;;;5.28;;
22646;SDS011;11490;42.726;23.268;2023-05-24T02:33:44;7.82;;;5.30;;
22646;SDS011;11490;42.726;23.268;2023-05-24T02:36:09;9.98;;;5.93;;
22646;SDS011;11490;42.726;23.268;2023-05-24T02:38:34;7.10;;;5.60;;
22646;SDS011;11490;42.726;23.268;2023-05-24T02:41:01;7.55;;;5.82;;
22646;SDS011;11490;42.726;23.268;2023-05-24T02:43:26;11.05;;;5.38;;
22646;SDS011;11490;42.726;23.268;2023-05-24T02:45:52;9.30;;;6.38;;
22646;SDS011;11490;42.726;23.268;2023-05-24T02:48:17;10.38;;;5.88;;
22646;SDS011;11490;42.726;23.268;2023-05-24T02:50:42;8.13;;;5.60;;
22646;SDS011;11490;42.726;23.268;2023-05-24T02:53:08;6.38;;;4.72;;
22646;SDS011;11490;42.726;23.268;2023-05-24T02:55:33;8.32;;;4.95;;
22646;SDS011;11490;42.726;23.268;2023-05-24T02:57:59;8.27;;;5.10;;
22646;SDS011;11490;42.726;23.268;2023-05-24T03:00:25;7.65;;;4.75;;
22646;SDS011;11490;42.726;23.268;2023-05-24T03:02:50;9.95;;;5.53;;
22646;SDS011;11490;42.726;23.268;2023-05-24T03:05:16;12.48;;;6.20;;
22646;SDS011;11490;42.726;23.268;2023-05-24T03:07:42;7.95;;;5.90;;
22646;SDS011;11490;42.726;23.268;2023-05-24T03:10:07;7.65;;;5.43;;
22646;SDS011;11490;42.726;23.268;2023-05-24T03:12:33;10.82;;;6.15;;
22646;SDS011;11490;42.726;23.268;2023-05-24T03:14:58;10.07;;;7.07;;
22646;SDS011;11490;42.726;23.268;2023-05-24T03:17:24;11.70;;;6.68;;
22646;SDS011;11490;42.726;23.268;2023-05-24T03:19:49;8.20;;;5.75;;
22646;SDS011;11490;42.726;23.268;2023-05-24T03:22:16;9.55;;;5.88;;
22646;SDS011;11490;42.726;23.268;2023-05-24T03:24:41;12.15;;;6.70;;
22646;SDS011;11490;42.726;23.268;2023-05-24T03:27:07;11.77;;;7.10;;
22646;SDS011;11490;42.726;23.268;2023-05-24T03:29:32;11.30;;;8.18;;
22646;SDS011;11490;42.726;23.268;2023-05-24T03:31:58;15.75;;;9.43;;
22646;SDS011;11490;42.726;23.268;2023-05-24T03:34:23;22.42;;;15.80;;
22646;SDS011;11490;42.726;23.268;2023-05-24T03:36:49;29.85;;;20.02;;
22646;SDS011;11490;42.726;23.268;2023-05-24T03:39:14;28.77;;;20.15;;
22646;SDS011;11490;42.726;23.268;2023-05-24T03:41:39;25.88;;;17.67;;
22646;SDS011;11490;42.726;23.268;2023-05-24T03:44:05;27.77;;;18.65;;
22646;SDS011;11490;42.726;23.268;2023-05-24T03:46:30;20.48;;;14.07;;
22646;SDS011;11490;42.726;23.268;2023-05-24T03:48:56;14.32;;;10.77;;
22646;SDS011;11490;42.726;23.268;2023-05-24T03:51:21;17.63;;;11.00;;
22646;SDS011;11490;42.726;23.268;2023-05-24T03:53:53;10.52;;;7.18;;
22646;SDS011;11490;42.726;23.268;2023-05-24T03:56:19;7.32;;;5.68;;
22646;SDS011;11490;42.726;23.268;2023-05-24T03:58:44;10.07;;;7.47;;
22646;SDS011;11490;42.726;23.268;2023-05-24T04:01:10;9.07;;;6.40;;
22646;SDS011;11490;42.726;23.268;2023-05-24T04:03:36;11.40;;;5.95;;
22646;SDS011;11490;42.726;23.268;2023-05-24T04:06:01;9.32;;;6.20;;
22646;SDS011;11490;42.726;23.268;2023-05-24T04:08:26;7.78;;;5.07;;
22646;SDS011;11490;42.726;23.268;2023-05-24T04:10:52;10.52;;;5.97;;
22646;SDS011;11490;42.726;23.268;2023-05-24T04:13:17;9.68;;;5.97;;
22646;SDS011;11490;42.726;23.268;2023-05-24T04:15:42;9.27;;;6.65;;
22646;SDS011;11490;42.726;23.268;2023-05-24T04:18:08;6.57;;;5.22;;
22646;SDS011;11490;42.726;23.268;2023-05-24T04:20:33;8.65;;;5.85;;
22646;SDS011;11490;42.726;23.268;2023-05-24T04:22:59;12.80;;;5.93;;
22646;SDS011;11490;42.726;23.268;2023-05-24T04:25:24;10.85;;;6.00;;
22646;SDS011;11490;42.726;23.268;2023-05-24T04:27:50;8.18;;;5.28;;
22646;SDS011;11490;42.726;23.268;2023-05-24T04:30:16;11.07;;;5.35;;
22646;SDS011;11490;42.726;23.268;2023-05-24T04:32:42;8.02;;;5.13;;
22646;SDS011;11490;42.726;23.268;2023-05-24T04:35:10;6.60;;;5.13;;
22646;SDS011;11490;42.726;23.268;2023-05-24T04:37:36;7.22;;;5.07;;
22646;SDS011;11490;42.726;23.268;2023-05-24T04:40:02;6.13;;;5.18;;
22646;SDS011;11490;42.726;23.268;2023-05-24T04:42:31;7.30;;;4.95;;
22646;SDS011;11490;42.726;23.268;2023-05-24T04:44:56;8.75;;;5.28;;
22646;SDS011;11490;42.726;23.268;2023-05-24T04:47:23;8.38;;;5.25;;
22646;SDS011;11490;42.726;23.268;2023-05-24T04:49:48;6.88;;;4.88;;
22646;SDS011;11490;42.726;23.268;2023-05-24T04:52:14;7.63;;;5.38;;
22646;SDS011;11490;42.726;23.268;2023-05-24T04:54:40;8.57;;;5.10;;
22646;SDS011;11490;42.726;23.268;2023-05-24T04:57:05;6.97;;;4.22;;
22646;SDS011;11490;42.726;23.268;2023-05-24T04:59:31;7.05;;;5.47;;
22646;SDS011;11490;42.726;23.268;2023-05-24T05:01:56;10.65;;;6.05;;
22646;SDS011;11490;42.726;23.268;2023-05-24T05:04:22;6.88;;;5.18;;
22646;SDS011;11490;42.726;23.268;2023-05-24T05:06:47;8.63;;;5.63;;
22646;SDS011;11490;42.726;23.268;2023-05-24T05:09:13;11.70;;;5.75;;
22646;SDS011;11490;42.726;23.268;2023-05-24T05:11:39;8.65;;;5.95;;
22646;SDS011;11490;42.726;23.268;2023-05-24T05:14:05;9.50;;;5.82;;
22646;SDS011;11490;42.726;23.268;2023-05-24T05:16:33;5.68;;;5.00;;
22646;SDS011;11490;42.726;23.268;2023-05-24T05:18:58;7.68;;;5.30;;
22646;SDS011;11490;42.726;23.268;2023-05-24T05:21:24;7.20;;;5.35;;
22646;SDS011;11490;42.726;23.268;2023-05-24T05:23:49;7.25;;;5.28;;
22646;SDS011;11490;42.726;23.268;2023-05-24T05:26:15;15.93;;;6.95;;
22646;SDS011;11490;42.726;23.268;2023-05-24T05:28:40;8.27;;;6.22;;
22646;SDS011;11490;42.726;23.268;2023-05-24T05:31:05;8.48;;;5.90;;
22646;SDS011;11490;42.726;23.268;2023-05-24T05:33:31;9.85;;;6.57;;
22646;SDS011;11490;42.726;23.268;2023-05-24T05:35:56;7.63;;;5.38;;
22646;SDS011;11490;42.726;23.268;2023-05-24T05:38:22;11.57;;;5.72;;
22646;SDS011;11490;42.726;23.268;2023-05-24T05:40:47;11.23;;;5.50;;
22646;SDS011;11490;42.726;23.268;2023-05-24T05:43:13;8.10;;;4.65;;
22646;SDS011;11490;42.726;23.268;2023-05-24T05:45:38;7.47;;;5.22;;
22646;SDS011;11490;42.726;23.268;2023-05-24T05:48:04;6.55;;;4.72;;
22646;SDS011;11490;42.726;23.268;2023-05-24T05:50:29;6.38;;;4.20;;
22646;SDS011;11490;42.726;23.268;2023-05-24T05:52:55;6.05;;;4.40;;
22646;SDS011;11490;42.726;23.268;2023-05-24T05:55:21;6.72;;;4.55;;
22646;SDS011;11490;42.726;23.268;2023-05-24T05:57:47;10.57;;;4.95;;
22646;SDS011;11490;42.726;23.268;2023-05-24T06:00:13;5.53;;;4.47;;
22646;SDS011;11490;42.726;23.268;2023-05-24T06:02:38;8.63;;;5.60;;
22646;SDS011;11490;42.726;23.268;2023-05-24T06:05:04;7.82;;;5.15;;
22646;SDS011;11490;42.726;23.268;2023-05-24T06:07:29;8.50;;;5.43;;
22646;SDS011;11490;42.726;23.268;2023-05-24T06:09:55;7.88;;;4.72;;
22646;SDS011;11490;42.726;23.268;2023-05-24T06:12:20;9.82;;;5.85;;
22646;SDS011;11490;42.726;23.268;2023-05-24T06:14:45;7.95;;;4.88;;
22646;SDS011;11490;42.726;23.268;2023-05-24T06:17:14;8.00;;;5.30;;
22646;SDS011;11490;42.726;23.268;2023-05-24T06:19:40;9.32;;;4.85;;
22646;SDS011;11490;42.726;23.268;2023-05-24T06:22:05;9.18;;;5.05;;
22646;SDS011;11490;42.726;23.268;2023-05-24T06:24:31;8.05;;;4.82;;
22646;SDS011;11490;42.726;23.268;2023-05-24T06:26:58;7.85;;;5.30;;
22646;SDS011;11490;42.726;23.268;2023-05-24T06:29:23;6.78;;;4.63;;
22646;SDS011;11490;42.726;23.268;2023-05-24T06:31:49;6.32;;;4.57;;
22646;SDS011;11490;42.726;23.268;2023-05-24T06:34:14;10.30;;;5.05;;
22646;SDS011;11490;42.726;23.268;2023-05-24T06:36:45;7.60;;;5.22;;
22646;SDS011;11490;42.726;23.268;2023-05-24T06:39:15;7.30;;;4.85;;
22646;SDS011;11490;42.726;23.268;2023-05-24T06:41:42;8.88;;;6.00;;
22646;SDS011;11490;42.726;23.268;2023-05-24T06:44:08;11.20;;;5.65;;
22646;SDS011;11490;42.726;23.268;2023-05-24T06:46:34;14.07;;;5.07;;
22646;SDS011;11490;42.726;23.268;2023-05-24T06:48:59;9.07;;;5.57;;
22646;SDS011;11490;42.726;23.268;2023-05-24T06:51:25;7.35;;;5.32;;
22646;SDS011;11490;42.726;23.268;2023-05-24T06:53:50;10.80;;;5.00;;
22646;SDS011;11490;42.726;23.268;2023-05-24T06:56:16;12.20;;;5.70;;
22646;SDS011;11490;42.726;23.268;2023-05-24T06:58:41;7.22;;;4.80;;
22646;SDS011;11490;42.726;23.268;2023-05-24T07:01:08;6.97;;;5.15;;
22646;SDS011;11490;42.726;23.268;2023-05-24T07:03:33;8.65;;;4.88;;
22646;SDS011;11490;42.726;23.268;2023-05-24T07:05:59;12.32;;;4.90;;
22646;SDS011;11490;42.726;23.268;2023-05-24T07:08:25;7.82;;;4.88;;
22646;SDS011;11490;42.726;23.268;2023-05-24T07:10:52;12.25;;;5.30;;
22646;SDS011;11490;42.726;23.268;2023-05-24T07:13:18;6.53;;;4.38;;
22646;SDS011;11490;42.726;23.268;2023-05-24T07:15:44;5.43;;;4.00;;
22646;SDS011;11490;42.726;23.268;2023-05-24T07:18:11;8.98;;;3.80;;
22646;SDS011;11490;42.726;23.268;2023-05-24T07:20:36;10.60;;;4.82;;
22646;SDS011;11490;42.726;23.268;2023-05-24T07:23:02;9.30;;;4.35;;
22646;SDS011;11490;42.726;23.268;2023-05-24T07:25:28;5.63;;;4.07;;
22646;SDS011;11490;42.726;23.268;2023-05-24T07:27:54;5.53;;;3.88;;
22646;SDS011;11490;42.726;23.268;2023-05-24T07:30:19;7.20;;;4.63;;
22646;SDS011;11490;42.726;23.268;2023-05-24T07:32:45;4.50;;;3.65;;
22646;SDS011;11490;42.726;23.268;2023-05-24T07:35:11;8.38;;;5.32;;
22646;SDS011;11490;42.726;23.268;2023-05-24T07:37:37;5.47;;;3.83;;
22646;SDS011;11490;42.726;23.268;2023-05-24T07:40:03;5.07;;;3.70;;
22646;SDS011;11490;42.726;23.268;2023-05-24T07:42:29;5.10;;;3.72;;
22646;SDS011;11490;42.726;23.268;2023-05-24T07:44:55;6.95;;;3.70;;
22646;SDS011;11490;42.726;23.268;2023-05-24T07:47:20;12.45;;;3.83;;
22646;SDS011;11490;42.726;23.268;2023-05-24T07:49:46;8.38;;;3.83;;
22646;SDS011;11490;42.726;23.268;2023-05-24T07:52:11;8.85;;;4.15;;
22646;SDS011;11490;42.726;23.268;2023-05-24T07:54:37;7.97;;;3.75;;
22646;SDS011;11490;42.726;23.268;2023-05-24T07:57:02;7.78;;;4.20;;
22646;SDS011;11490;42.726;23.268;2023-05-24T07:59:28;5.07;;;3.50;;
22646;SDS011;11490;42.726;23.268;2023-05-24T08:01:54;5.72;;;3.70;;
22646;SDS011;11490;42.726;23.268;2023-05-24T08:04:19;4.68;;;3.13;;
22646;SDS011;11490;42.726;23.268;2023-05-24T08:06:47;5.15;;;3.40;;
22646;SDS011;11490;42.726;23.268;2023-05-24T08:09:12;6.43;;;3.25;;
22646;SDS011;11490;42.726;23.268;2023-05-24T08:11:38;6.10;;;3.47;;
22646;SDS011;11490;42.726;23.268;2023-05-24T08:14:03;5.63;;;3.30;;
22646;SDS011;11490;42.726;23.268;2023-05-24T08:16:30;5.50;;;3.33;;
22646;SDS011;11490;42.726;23.268;2023-05-24T08:18:55;4.25;;;3.17;;
22646;SDS011;11490;42.726;23.268;2023-05-24T08:21:28;5.15;;;3.33;;
22646;SDS011;11490;42.726;23.268;2023-05-24T08:23:56;6.35;;;3.08;;
22646;SDS011;11490;42.726;23.268;2023-05-24T08:26:31;5.40;;;2.88;;
22646;SDS011;11490;42.726;23.268;2023-05-24T08:28:59;3.97;;;2.67;;
22646;SDS011;11490;42.726;23.268;2023-05-24T08:31:24;3.15;;;2.10;;
22646;SDS011;11490;42.726;23.268;2023-05-24T08:33:50;3.58;;;2.63;;
22646;SDS011;11490;42.726;23.268;2023-05-24T08:36:18;4.22;;;3.00;;
22646;SDS011;11490;42.726;23.268;2023-05-24T08:38:44;3.92;;;2.58;;
22646;SDS011;11490;42.726;23.268;2023-05-24T08:41:10;3.72;;;2.22;;
22646;SDS011;11490;42.726;23.268;2023-05-24T08:43:37;3.17;;;2.40;;
22646;SDS011;11490;42.726;23.268;2023-05-24T08:46:02;3.63;;;2.33;;
22646;SDS011;11490;42.726;23.268;2023-05-24T08:48:29;4.32;;;2.20;;
22646;SDS011;11490;42.726;23.268;2023-05-24T08:50:55;3.75;;;2.30;;
22646;SDS011;11490;42.726;23.268;2023-05-24T08:53:21;3.40;;;2.53;;
22646;SDS011;11490;42.726;23.268;2023-05-24T08:55:48;3.25;;;2.33;;
22646;SDS011;11490;42.726;23.268;2023-05-24T08:58:17;3.83;;;2.45;;
22646;SDS011;11490;42.726;23.268;2023-05-24T09:00:45;4.35;;;2.47;;
22646;SDS011;11490;42.726;23.268;2023-05-24T09:03:11;4.75;;;2.30;;
22646;SDS011;11490;42.726;23.268;2023-05-24T09:05:37;2.90;;;2.28;;
22646;SDS011;11490;42.726;23.268;2023-05-24T09:08:05;3.65;;;2.28;;
22646;SDS011;11490;42.726;23.268;2023-05-24T09:10:32;4.95;;;2.53;;
22646;SDS011;11490;42.726;23.268;2023-05-24T09:12:58;3.38;;;2.33;;
22646;SDS011;11490;42.726;23.268;2023-05-24T09:15:26;3.35;;;2.40;;
22646;SDS011;11490;42.726;23.268;2023-05-24T09:17:52;3.50;;;2.40;;
22646;SDS011;11490;42.726;23.268;2023-05-24T09:20:17;5.68;;;2.60;;
22646;SDS011;11490;42.726;23.268;2023-05-24T09:22:44;4.95;;;2.30;;
22646;SDS011;11490;42.726;23.268;2023-05-24T09:25:14;4.30;;;2.38;;
22646;SDS011;11490;42.726;23.268;2023-05-24T09:27:47;4.05;;;2.42;;
22646;SDS011;11490;42.726;23.268;2023-05-24T09:30:17;6.35;;;2.72;;
22646;SDS011;11490;42.726;23.268;2023-05-24T09:32:53;4.32;;;2.22;;
22646;SDS011;11490;42.726;23.268;2023-05-24T09:35:23;3.97;;;2.08;;
22646;SDS011;11490;42.726;23.268;2023-05-24T09:37:52;4.32;;;2.42;;
22646;SDS011;11490;42.726;23.268;2023-05-24T09:40:19;4.05;;;2.28;;
22646;SDS011;11490;42.726;23.268;2023-05-24T09:42:45;5.05;;;2.47;;
22646;SDS011;11490;42.726;23.268;2023-05-24T09:45:11;4.32;;;2.90;;
22646;SDS011;11490;42.726;23.268;2023-05-24T09:47:40;6.57;;;2.45;;
22646;SDS011;11490;42.726;23.268;2023-05-24T09:50:13;7.95;;;2.28;;
22646;SDS011;11490;42.726;23.268;2023-05-24T09:52:41;3.97;;;2.30;;
22646;SDS011;11490;42.726;23.268;2023-05-24T09:55:11;3.72;;;2.08;;
22646;SDS011;11490;42.726;23.268;2023-05-24T09:57:41;4.30;;;2.33;;
22646;SDS011;11490;42.726;23.268;2023-05-24T10:00:08;7.25;;;4.75;;
22646;SDS011;11490;42.726;23.268;2023-05-24T10:02:41;3.65;;;2.15;;
22646;SDS011;11490;42.726;23.268;2023-05-24T10:05:11;3.00;;;2.00;;
22646;SDS011;11490;42.726;23.268;2023-05-24T10:07:36;2.85;;;1.85;;
22646;SDS011;11490;42.726;23.268;2023-05-24T10:10:03;5.07;;;2.65;;
22646;SDS011;11490;42.726;23.268;2023-05-24T10:12:29;3.00;;;2.22;;
22646;SDS011;11490;42.726;23.268;2023-05-24T10:14:55;2.75;;;1.70;;
22646;SDS011;11490;42.726;23.268;2023-05-24T10:17:21;3.60;;;2.35;;
22646;SDS011;11490;42.726;23.268;2023-05-24T10:19:51;4.50;;;1.80;;
22646;SDS011;11490;42.726;23.268;2023-05-24T10:22:17;2.58;;;1.88;;
22646;SDS011;11490;42.726;23.268;2023-05-24T10:24:46;4.70;;;2.28;;
22646;SDS011;11490;42.726;23.268;2023-05-24T10:27:15;3.85;;;2.30;;
22646;SDS011;11490;42.726;23.268;2023-05-24T10:32:10;5.32;;;2.35;;
22646;SDS011;11490;42.726;23.268;2023-05-24T10:34:39;4.82;;;2.58;;
22646;SDS011;11490;42.726;23.268;2023-05-24T10:37:06;3.42;;;2.17;;
22646;SDS011;11490;42.726;23.268;2023-05-24T10:39:33;2.83;;;2.03;;
22646;SDS011;11490;42.726;23.268;2023-05-24T10:42:05;2.95;;;2.00;;
22646;SDS011;11490;42.726;23.268;2023-05-24T10:44:31;3.33;;;2.03;;
22646;SDS011;11490;42.726;23.268;2023-05-24T10:52:17;3.92;;;2.38;;
22646;SDS011;11490;42.726;23.268;2023-05-24T10:57:28;15.23;;;4.72;;
22646;SDS011;11490;42.726;23.268;2023-05-24T10:59:56;4.47;;;2.90;;
22646;SDS011;11490;42.726;23.268;2023-05-24T11:02:22;5.95;;;3.90;;
22646;SDS011;11490;42.726;23.268;2023-05-24T11:04:52;8.45;;;3.20;;
22646;SDS011;11490;42.726;23.268;2023-05-24T11:07:18;2.40;;;1.80;;
22646;SDS011;11490;42.726;23.268;2023-05-24T11:09:45;5.28;;;2.40;;
22646;SDS011;11490;42.726;23.268;2023-05-24T11:12:15;2.78;;;1.88;;
22646;SDS011;11490;42.726;23.268;2023-05-24T11:14:45;2.55;;;1.92;;
22646;SDS011;11490;42.726;23.268;2023-05-24T11:17:15;4.30;;;1.90;;
22646;SDS011;11490;42.726;23.268;2023-05-24T11:19:51;4.07;;;2.15;;
22646;SDS011;11490;42.726;23.268;2023-05-24T11:22:18;3.20;;;2.13;;
22646;SDS011;11490;42.726;23.268;2023-05-24T11:24:45;3.90;;;2.28;;
22646;SDS011;11490;42.726;23.268;2023-05-24T11:27:11;3.30;;;1.92;;
22646;SDS011;11490;42.726;23.268;2023-05-24T11:29:41;6.30;;;2.35;;
22646;SDS011;11490;42.726;23.268;2023-05-24T11:32:08;3.05;;;2.05;;
22646;SDS011;11490;42.726;23.268;2023-05-24T11:34:34;2.58;;;2.08;;
22646;SDS011;11490;42.726;23.268;2023-05-24T11:37:00;3.25;;;2.17;;
22646;SDS011;11490;42.726;23.268;2023-05-24T11:39:34;13.70;;;2.30;;
22646;SDS011;11490;42.726;23.268;2023-05-24T11:42:04;7.20;;;2.30;;
22646;SDS011;11490;42.726;23.268;2023-05-24T11:44:31;4.15;;;1.92;;
22646;SDS011;11490;42.726;23.268;2023-05-24T11:46:58;5.38;;;3.65;;
22646;SDS011;11490;42.726;23.268;2023-05-24T11:49:24;3.38;;;2.13;;
22646;SDS011;11490;42.726;23.268;2023-05-24T11:51:51;3.08;;;1.88;;
22646;SDS011;11490;42.726;23.268;2023-05-24T11:54:18;3.75;;;2.03;;
22646;SDS011;11490;42.726;23.268;2023-05-24T11:56:43;2.33;;;1.92;;
22646;SDS011;11490;42.726;23.268;2023-05-24T11:59:16;2.78;;;1.85;;
22646;SDS011;11490;42.726;23.268;2023-05-24T12:01:46;3.33;;;2.03;;
22646;SDS011;11490;42.726;23.268;2023-05-24T12:04:11;2.72;;;2.08;;
22646;SDS011;11490;42.726;23.268;2023-05-24T12:06:41;3.47;;;2.15;;
22646;SDS011;11490;42.726;23.268;2023-05-24T12:09:08;3.35;;;2.20;;
22646;SDS011;11490;42.726;23.268;2023-05-24T12:11:41;2.05;;;1.80;;
22646;SDS011;11490;42.726;23.268;2023-05-24T12:14:18;3.15;;;2.10;;
22646;SDS011;11490;42.726;23.268;2023-05-24T12:16:47;3.47;;;2.20;;
22646;SDS011;11490;42.726;23.268;2023-05-24T12:19:19;4.68;;;2.20;;
22646;SDS011;11490;42.726;23.268;2023-05-24T12:21:49;3.90;;;2.17;;
22646;SDS011;11490;42.726;23.268;2023-05-24T12:24:15;4.20;;;2.53;;
22646;SDS011;11490;42.726;23.268;2023-05-24T12:26:46;2.67;;;1.85;;
22646;SDS011;11490;42.726;23.268;2023-05-24T12:29:12;2.95;;;1.88;;
22646;SDS011;11490;42.726;23.268;2023-05-24T12:31:39;6.68;;;2.70;;
22646;SDS011;11490;42.726;23.268;2023-05-24T12:34:05;7.85;;;2.33;;
22646;SDS011;11490;42.726;23.268;2023-05-24T12:36:33;2.72;;;1.92;;
22646;SDS011;11490;42.726;23.268;2023-05-24T12:39:03;5.63;;;2.22;;
22646;SDS011;11490;42.726;23.268;2023-05-24T12:41:40;3.28;;;2.50;;
22646;SDS011;11490;42.726;23.268;2023-05-24T12:44:05;3.60;;;2.30;;
22646;SDS011;11490;42.726;23.268;2023-05-24T12:46:31;3.60;;;2.30;;
22646;SDS011;11490;42.726;23.268;2023-05-24T12:48:57;3.35;;;2.35;;
22646;SDS011;11490;42.726;23.268;2023-05-24T12:51:26;3.72;;;2.72;;
22646;SDS011;11490;42.726;23.268;2023-05-24T12:53:51;3.17;;;1.95;;
22646;SDS011;11490;42.726;23.268;2023-05-24T12:56:17;2.97;;;1.90;;
22646;SDS011;11490;42.726;23.268;2023-05-24T12:58:42;4.03;;;2.30;;
22646;SDS011;11490;42.726;23.268;2023-05-24T13:01:07;2.83;;;1.92;;
22646;SDS011;11490;42.726;23.268;2023-05-24T13:03:33;3.20;;;2.40;;
22646;SDS011;11490;42.726;23.268;2023-05-24T13:05:59;5.15;;;2.65;;
22646;SDS011;11490;42.726;23.268;2023-05-24T13:08:24;3.47;;;2.78;;
22646;SDS011;11490;42.726;23.268;2023-05-24T13:10:52;5.60;;;2.85;;
22646;SDS011;11490;42.726;23.268;2023-05-24T13:13:18;3.90;;;2.42;;
22646;SDS011;11490;42.726;23.268;2023-05-24T13:15:43;3.72;;;2.65;;
22646;SDS011;11490;42.726;23.268;2023-05-24T13:18:09;3.42;;;2.25;;
22646;SDS011;11490;42.726;23.268;2023-05-24T13:20:34;3.58;;;2.60;;
22646;SDS011;11490;42.726;23.268;2023-05-24T13:23:00;4.25;;;2.40;;
22646;SDS011;11490;42.726;23.268;2023-05-24T13:25:25;3.20;;;2.17;;
22646;SDS011;11490;42.726;23.268;2023-05-24T13:27:51;3.35;;;2.25;;
22646;SDS011;11490;42.726;23.268;2023-05-24T13:30:16;11.18;;;7.53;;
22646;SDS011;11490;42.726;23.268;2023-05-24T13:32:42;4.18;;;3.05;;
22646;SDS011;11490;42.726;23.268;2023-05-24T13:35:07;4.00;;;2.78;;
22646;SDS011;11490;42.726;23.268;2023-05-24T13:37:33;7.45;;;5.43;;
22646;SDS011;11490;42.726;23.268;2023-05-24T13:39:59;7.63;;;3.97;;
22646;SDS011;11490;42.726;23.268;2023-05-24T13:42:24;15.60;;;4.88;;
22646;SDS011;11490;42.726;23.268;2023-05-24T13:44:50;5.85;;;4.07;;
22646;SDS011;11490;42.726;23.268;2023-05-24T13:47:16;8.27;;;3.40;;
22646;SDS011;11490;42.726;23.268;2023-05-24T13:49:43;6.57;;;4.13;;
22646;SDS011;11490;42.726;23.268;2023-05-24T13:52:09;7.25;;;3.90;;
22646;SDS011;11490;42.726;23.268;2023-05-24T13:54:34;11.00;;;4.55;;
22646;SDS011;11490;42.726;23.268;2023-05-24T13:57:00;4.55;;;3.08;;
22646;SDS011;11490;42.726;23.268;2023-05-24T13:59:26;4.90;;;3.55;;
22646;SDS011;11490;42.726;23.268;2023-05-24T14:01:52;6.65;;;4.22;;
22646;SDS011;11490;42.726;23.268;2023-05-24T14:04:17;12.00;;;3.95;;
22646;SDS011;11490;42.726;23.268;2023-05-24T14:06:43;6.55;;;4.72;;
22646;SDS011;11490;42.726;23.268;2023-05-24T14:09:09;6.97;;;4.05;;
22646;SDS011;11490;42.726;23.268;2023-05-24T14:11:34;6.72;;;4.68;;
22646;SDS011;11490;42.726;23.268;2023-05-24T14:14:00;6.65;;;4.50;;
22646;SDS011;11490;42.726;23.268;2023-05-24T14:16:26;6.38;;;4.82;;
22646;SDS011;11490;42.726;23.268;2023-05-24T14:18:52;10.95;;;5.68;;
22646;SDS011;11490;42.726;23.268;2023-05-24T14:21:18;9.30;;;5.40;;
22646;SDS011;11490;42.726;23.268;2023-05-24T14:23:45;11.48;;;5.18;;
22646;SDS011;11490;42.726;23.268;2023-05-24T14:26:11;5.95;;;4.45;;
22646;SDS011;11490;42.726;23.268;2023-05-24T14:28:36;6.85;;;4.28;;
22646;SDS011;11490;42.726;23.268;2023-05-24T14:31:02;6.40;;;3.92;;
22646;SDS011;11490;42.726;23.268;2023-05-24T14:33:27;8.27;;;4.47;;
22646;SDS011;11490;42.726;23.268;2023-05-24T14:35:52;8.45;;;4.55;;
22646;SDS011;11490;42.726;23.268;2023-05-24T14:38:18;7.07;;;3.95;;
22646;SDS011;11490;42.726;23.268;2023-05-24T14:40:43;6.22;;;4.78;;
22646;SDS011;11490;42.726;23.268;2023-05-24T14:43:11;5.22;;;4.15;;
22646;SDS011;11490;42.726;23.268;2023-05-24T14:45:37;6.90;;;4.35;;
22646;SDS011;11490;42.726;23.268;2023-05-24T14:48:05;4.80;;;3.53;;
22646;SDS011;11490;42.726;23.268;2023-05-24T14:50:30;3.92;;;2.75;;